• Join FlightAware (Why Join?)
  • Login
  • US Flag 
04:58AM EST


 

Airport Tracker/Info


-or-


 

Live Flight TrackerFlight Track Log ✈ JZA8293 ✈ 28-Apr-2013 ✈ CYWG - CYXE

Flight Track Log - Related Links

Times and Time Zones

All times are in EDT time to prevent confusion due to time zone crossing. See the JZA8293 flight status page for this flight to view local times or setup timezone preferences in your user account.

Time Position Orientation Groundspeed Altitude Reporting Facility
EDT Latitude Longitude Course Direction KTS MPH feet Rate Location/Type
01:23PM 49.8833 -97.2333 287° West 90 104 800  Level Winnipeg Center
01:24PM 49.9167 -97.2833 316° Northwest 160 184 2,800 1,980 Climbing Winnipeg Center
01:25PM 49.9500 -97.3333 316° Northwest 200 230 4,800 2,340 Climbing Winnipeg Center
01:26PM 49.9667 -97.4333 285° West 230 265 7,500 2,460 Climbing Winnipeg Center
01:27PM 50.0434 -97.8666 287° West  Level FlightAware Approximate
01:27PM 49.9833 -97.5333 285° West 260 299 9,800  Level Winnipeg Center
01:28PM 50.0756 -98.0277 287° West  Level FlightAware Approximate
01:28PM 50.0167 -97.6667 291° West 310 357 11,000  Level Winnipeg Center
01:29PM 50.0333 -97.8000 281° West 310 357 13,500 2,160 Climbing Winnipeg Center
01:30PM 50.0667 -97.9333 291° West 320 368 15,300 1,680 Climbing Winnipeg Center
01:31PM 50.0667 -98.0667 270° West 330 380 16,900 1,680 Climbing Winnipeg Center
01:32PM 50.1000 -98.2000 291° West 330 380 18,700 1,560 Climbing Winnipeg Center
01:33PM 50.1333 -98.3500 289° West 340 391 20,100 1,260 Climbing Winnipeg Center
01:34PM 50.1667 -98.4833 291° West 350 403 21,300 1,140 Climbing Winnipeg Center
01:35PM 50.2000 -98.6333 289° West 360 414 22,400 1,140 Climbing Winnipeg Center
01:36PM 50.2333 -98.8000 287° West 360 414 23,600 900 Climbing Winnipeg Center
01:37PM 50.2500 -98.9333 281° West 370 426 24,300 840 Climbing Winnipeg Center
01:38PM 50.2833 -99.1167 286° West 370 426 25,300 840 Climbing Winnipeg Center
01:39PM 50.3167 -99.2500 291° West 380 437 26,000 720 Climbing Winnipeg Center
01:40PM 50.3333 -99.4000 280° West 380 437 26,800 600 Climbing Winnipeg Center
01:41PM 50.3667 -99.5833 286° West 380 437 27,300 420 Climbing Winnipeg Center
01:42PM 50.4000 -99.7500 287° West 390 449 27,700 900 Climbing Winnipeg Center
01:43PM 50.4500 -99.9167 295° West 380 437 29,200 1,200 Climbing Winnipeg Center
01:44PM 50.4833 -100.0500 291° West 370 426 30,200 840 Climbing Winnipeg Center
01:45PM 50.5333 -100.2000 298° West 370 426 30,900 540 Climbing Winnipeg Center
01:46PM 50.5667 -100.3333 292° West 360 414 31,300 420 Climbing Winnipeg Center
01:47PM 50.6167 -100.5000 295° West 370 426 31,800 480 Climbing Winnipeg Center
01:48PM 50.6500 -100.6333 292° West 370 426 32,300 540 Climbing Winnipeg Center
01:49PM 50.6833 -100.7667 292° West 360 414 32,900 540 Climbing Winnipeg Center
01:50PM 50.7333 -100.9000 301° West 360 414 33,400 360 Climbing Winnipeg Center
01:51PM 50.7833 -101.0667 295° West 360 414 33,700 300 Climbing Winnipeg Center
01:52PM 50.8167 -101.2000 292° West 360 414 34,000 120 Climbing Winnipeg Center
01:53PM 50.8500 -101.3333 292° West 370 426 34,000  Level Winnipeg Center
01:54PM 50.9000 -101.5000 295° West 380 437 34,000  Level Winnipeg Center
01:55PM 50.9500 -101.6667 296° West 390 449 34,000  Level Winnipeg Center
01:56PM 50.9833 -101.8333 288° West 400 460 34,000  Level Winnipeg Center
01:57PM 51.0500 -102.0000 303° West 400 460 34,000  Level Winnipeg Center
01:58PM 51.0833 -102.1667 288° West 400 460 34,000  Level Winnipeg Center
01:59PM 51.1333 -102.3333 296° West 400 460 34,000  Level Winnipeg Center
02:00PM 51.1500 -102.4667 281° West 380 437 34,000  Level Winnipeg Center
02:01PM 51.2000 -102.6333 296° West 380 437 34,000  Level Winnipeg Center
02:02PM 51.2333 -102.7667 292° West 380 437 34,000  Level Winnipeg Center
02:03PM 51.2833 -102.9333 296° West 380 437 34,000  Level Winnipeg Center
02:04PM 51.3167 -103.1000 288° West 390 449 34,000  Level Winnipeg Center
02:05PM 51.3667 -103.2667 296° West 390 449 34,000  Level Winnipeg Center
02:06PM 51.4000 -103.4333 288° West 400 460 34,000  Level Winnipeg Center
02:07PM 51.4500 -103.5833 298° West 390 449 34,000  Level Winnipeg Center
02:08PM 51.4833 -103.7667 286° West 390 449 34,000  Level Winnipeg Center
02:09PM 51.5333 -103.9167 298° West 390 449 34,000  Level Winnipeg Center
02:10PM 51.5667 -104.0833 288° West 390 449 34,000  Level Winnipeg Center
02:11PM 51.6167 -104.2500 296° West 380 437 34,000  Level Winnipeg Center
02:12PM 51.6500 -104.4000 290° West 380 437 34,000  Level Winnipeg Center
02:13PM 51.7000 -104.5667 296° West 370 426 34,000  Level Winnipeg Center
02:14PM 51.7167 -104.7000 281° West 370 426 34,000 -1,140 Level Winnipeg Center
02:15PM 51.7500 -104.8667 288° West 370 426 31,800 -2,400 Descending Winnipeg Center
02:16PM 51.8000 -105.0167 298° West 380 437 29,200 -2,640 Descending Winnipeg Center
02:17PM 51.8333 -105.1667 290° West 370 426 26,600 -2,700 Descending Winnipeg Center
02:18PM 51.8667 -105.3333 288° West 360 414 23,800 -2,700 Descending Winnipeg Center
02:19PM 51.9000 -105.4667 292° West 360 414 21,200 -2,760 Descending Winnipeg Center
02:20PM 51.9333 -105.6333 288° West 360 414 18,300 -2,760 Descending Winnipeg Center
02:21PM 51.9833 -105.7833 298° West 350 403 15,700 -2,760 Descending Winnipeg Center
02:22PM 52.0000 -105.9333 280° West 330 380 12,800 -2,700 Descending Winnipeg Center
02:23PM 52.0333 -106.0500 295° West 320 368 10,300 -1,980 Descending Winnipeg Center
02:24PM 52.0667 -106.1667 295° West 300 345 8,900 -1,560 Descending Winnipeg Center
02:25PM 52.0833 -106.2667 285° West 250 288 7,200 -1,800 Descending Winnipeg Center
02:26PM 52.1167 -106.3833 295° West 240 276 5,400 -1,500 Descending Winnipeg Center
02:27PM 52.1167 -106.4667 270° West 220 253 4,200 -1,020 Descending Winnipeg Center
02:28PM 52.1333 -106.5500 288° West 200 230 3,400 -840 Descending Winnipeg Center